Huvudsida
METAR-TAF:

METAR-TAF

Flygplatser :

Acapulco, Mexiko

latitud: 16-46N, longitud: 099-45W, höjd: 5 m

Aktuellt väderrapport

Denna rapport gjordes för 51 minuter sedan, klockan 08:42 UTC
Stilla vind
Temperatur 25°C
Fuktighet 89%
Tryck 1009 hPa
Sikt: 6.4 km
Klar himmel

METAR: MMAA 250842Z 00000KT 4SM SKC 25/23 A2981 RMK SLP096 57010 958 HZY

Tid: 04:33 (09:33 UTC)

Väderprognos

Denna rapport gjordes för 4 timmar och 34 minuter sedan, klockan 04:59 UTC
Prognos gäller från 25 kl. 06 UTC till 26 kl. 12 UTC
Vind 5 kt från nord/nordost
Sikt: 6.4 km
Spridda moln på en höjd av 12000 ft
torrdis
Från 25 kl. 1600 UTC
Vind 10 kt från väst/sydväst
Sikt: 8.0 km
Klar himmel
torrdis
Från 26 kl. 0300 UTC
Vind 5 kt från nord/nordost
Sikt: 8.0 km
Klar himmel
torrdis

TAF: MMAA 250459Z 2506/2612 03005KT 4SM HZ SCT120 TX31/2520Z TN25/2512Z FM251600 25010KT 5SM HZ SKC FM260300 02005KT 5SM HZ SKC

Aktuella väderrapporter och prognoser från 4000 flygplatser (METAR- och TAF-rapporter).

De tillgängliga stationerna syns som gula och röda prickar på kartan.

För musen över prickarna för att se namnen på stationerna.

Klicka sedan för att få väderrapporter och prognoser.

För att ändra kartan: Klicka på de gröna knapparna med ett svart kors på för att zooma in; den gröna knappen med ett streck på för att zooma ut; eller på de gröna pilarna för angränsande kartor.


METAR-TAF: